Granite Canon, Wyoming
Current Conditions -  °F | °C
As of 7:56 PM on Sunday 23 Nov 2014 (Local Time) from KFEW Reporting Station
Scattered Clouds Scattered Clouds  
Wind Chill: 11°   Ceiling: Unl
Heat Index: 24°   Visibility: 10mi
Dew Point: 14°   Wind: 15mph
Humidity: 66%   Direction: 320°NW
Pressure: 29.8"   Gusts: 24mph
Location:  41.1°N, 105.14°W
Report Text: KFEW 240256Z AUTO 32013G21KT 10SM SCT120 M04/M10 A2980 RMK AO2 SLP128 T10451100 50000 $
Loading
Personal Weather Stations






























Interactive Weather Map New forecast layout! Learn more

10-Day Weather Forecast

Advertisements
Track Severe Weather on mobile